Time,TemperatureF,DewpointF,PressureIn,WindDirection,WindDirectionDegrees,WindSpeedMPH,WindSpeedGustMPH,Humidity,HourlyPrecipIn,Conditions,Clouds,dailyrainin,SolarRadiationWatts/m^2,SoftwareType,DateUTC
2013-02-19 00:00:00,51.6,39.4,29.96,ESE,115,1.0,1.0,63,0.00,,,0.00,0,Wunderground v.1.15,2013-02-19 08:00:00,
2013-02-19 00:05:00,51.6,39.4,29.96,East,90,0.0,1.0,63,0.00,,,0.00,0,Wunderground v.1.15,2013-02-19 08:05:00,
2013-02-19 00:15:00,51.4,39.2,29.97,SE,124,0.0,2.0,63,0.00,,,0.00,0,Wunderground v.1.15,2013-02-19 08:15:00,
2013-02-19 00:20:00,51.5,39.3,29.97,ENE,62,0.0,0.0,63,0.00,,,0.00,0,Wunderground v.1.15,2013-02-19 08:20:00,
2013-02-19 00:25:00,51.4,39.2,29.97,ENE,71,2.0,2.0,63,0.00,,,0.00,0,Wunderground v.1.15,2013-02-19 08:25:00,
2013-02-19 00:35:00,51.3,38.7,29.97,East,99,0.0,0.0,62,0.00,,,0.00,0,Wunderground v.1.15,2013-02-19 08:35:00,
2013-02-19 00:45:00,51.2,38.6,29.96,ESE,109,2.0,2.0,62,0.00,,,0.00,0,Wunderground v.1.15,2013-02-19 08:45:00,
2013-02-19 00:50:00,51.1,38.5,29.96,ESE,123,2.0,2.0,62,0.00,,,0.00,0,Wunderground v.1.15,2013-02-19 08:50:00,
2013-02-19 01:00:00,51.1,38.1,29.96,ESE,123,2.0,2.0,61,0.00,,,0.00,0,Wunderground v.1.15,2013-02-19 09:00:00,
2013-02-19 01:05:00,51.0,38.0,29.96,ESE,123,1.0,2.0,61,0.00,,,0.00,0,Wunderground v.1.15,2013-02-19 09:05:00,
2013-02-19 01:15:00,51.1,38.5,29.97,ESE,123,0.0,0.0,62,0.00,,,0.00,0,Wunderground v.1.15,2013-02-19 09:15:00,
2013-02-19 01:25:00,51.2,38.6,29.96,ESE,123,0.0,0.0,62,0.00,,,0.00,0,Wunderground v.1.15,2013-02-19 09:25:00,
2013-02-19 01:30:00,51.2,38.6,29.96,East,79,0.0,0.0,62,0.00,,,0.00,0,Wunderground v.1.15,2013-02-19 09:30:00,
2013-02-19 01:40:00,51.2,39.0,29.96,ESE,106,0.0,0.0,63,0.00,,,0.00,0,Wunderground v.1.15,2013-02-19 09:40:00,
2013-02-19 01:45:00,51.2,39.0,29.95,ESE,106,0.0,0.0,63,0.00,,,0.00,0,Wunderground v.1.15,2013-02-19 09:45:00,
2013-02-19 01:55:00,51.4,38.8,29.95,East,89,0.0,0.0,62,0.00,,,0.00,0,Wunderground v.1.15,2013-02-19 09:55:00,
2013-02-19 02:00:00,51.3,38.3,29.95,East,89,0.0,0.0,61,0.00,,,0.00,0,Wunderground v.1.15,2013-02-19 10:00:00,
2013-02-19 02:05:00,51.3,38.3,29.94,East,89,0.0,0.0,61,0.00,,,0.00,0,Wunderground v.1.15,2013-02-19 10:05:00,
2013-02-19 02:14:00,51.2,38.2,29.94,East,89,0.0,0.0,61,0.00,,,0.00,0,Wunderground v.1.15,2013-02-19 10:14:00,
2013-02-19 02:20:00,51.3,38.3,29.94,East,89,0.0,0.0,61,0.00,,,0.00,0,Wunderground v.1.15,2013-02-19 10:20:00,
2013-02-19 02:25:00,51.2,38.2,29.94,East,89,1.0,1.0,61,0.00,,,0.00,0,Wunderground v.1.15,2013-02-19 10:25:00,
2013-02-19 02:35:00,51.2,38.2,29.94,East,89,0.0,0.0,61,0.00,,,0.00,0,Wunderground v.1.15,2013-02-19 10:35:00,
2013-02-19 02:40:00,51.2,38.2,29.94,East,88,0.0,0.0,61,0.00,,,0.00,0,Wunderground v.1.15,2013-02-19 10:40:00,
2013-02-19 02:45:00,51.2,38.2,29.94,East,89,0.0,0.0,61,0.00,,,0.00,0,Wunderground v.1.15,2013-02-19 10:45:00,
2013-02-19 02:55:00,51.3,38.3,29.94,East,81,0.0,0.0,61,0.00,,,0.00,0,Wunderground v.1.15,2013-02-19 10:55:00,
2013-02-19 03:00:00,51.3,38.3,29.93,ENE,78,0.0,0.0,61,0.00,,,0.00,0,Wunderground v.1.15,2013-02-19 11:00:00,
2013-02-19 03:05:00,51.2,38.2,29.93,ENE,78,0.0,0.0,61,0.00,,,0.00,0,Wunderground v.1.15,2013-02-19 11:05:00,
2013-02-19 03:14:00,51.2,38.2,29.93,ENE,78,0.0,0.0,61,0.00,,,0.00,0,Wunderground v.1.15,2013-02-19 11:14:00,
2013-02-19 03:20:00,51.1,38.1,29.93,ENE,78,0.0,0.0,61,0.00,,,0.00,0,Wunderground v.1.15,2013-02-19 11:20:00,
2013-02-19 03:25:00,50.9,38.3,29.92,ENE,78,0.0,0.0,62,0.00,,,0.00,0,Wunderground v.1.15,2013-02-19 11:25:00,
2013-02-19 03:30:00,50.9,38.3,29.92,ENE,78,1.0,1.0,62,0.00,,,0.00,0,Wunderground v.1.15,2013-02-19 11:30:00,
2013-02-19 03:40:00,50.7,38.1,29.93,ENE,78,0.0,0.0,62,0.00,,,0.00,0,Wunderground v.1.15,2013-02-19 11:40:00,
2013-02-19 03:45:00,50.7,38.1,29.92,ENE,78,0.0,0.0,62,0.00,,,0.00,0,Wunderground v.1.15,2013-02-19 11:45:00,
2013-02-19 03:55:00,50.5,38.4,29.92,ENE,78,0.0,0.0,63,0.00,,,0.00,0,Wunderground v.1.15,2013-02-19 11:55:00,
2013-02-19 04:05:00,50.5,38.4,29.92,East,79,0.0,0.0,63,0.00,,,0.00,0,Wunderground v.1.15,2013-02-19 12:05:00,
2013-02-19 04:15:00,50.5,38.4,29.93,ENE,78,0.0,0.0,63,0.00,,,0.00,0,Wunderground v.1.15,2013-02-19 12:15:00,
2013-02-19 04:24:00,50.7,39.0,29.93,ENE,78,0.0,0.0,64,0.00,,,0.00,0,Wunderground v.1.15,2013-02-19 12:24:00,
2013-02-19 04:30:00,50.6,38.5,29.92,ENE,78,0.0,0.0,63,0.00,,,0.00,0,Wunderground v.1.15,2013-02-19 12:30:00,
2013-02-19 04:40:00,50.3,38.6,29.92,ENE,78,0.0,0.0,64,0.00,,,0.00,0,Wunderground v.1.15,2013-02-19 12:40:00,
2013-02-19 04:45:00,50.3,39.0,29.93,NE,48,0.0,0.0,65,0.00,,,0.00,0,Wunderground v.1.15,2013-02-19 12:45:00,
2013-02-19 04:55:00,50.3,38.6,29.93,NE,48,0.0,0.0,64,0.00,,,0.00,0,Wunderground v.1.15,2013-02-19 12:55:00,
2013-02-19 05:00:00,50.3,38.6,29.93,NE,48,0.0,0.0,64,0.00,,,0.00,0,Wunderground v.1.15,2013-02-19 13:00:00,
2013-02-19 05:05:00,50.3,38.2,29.93,NE,48,0.0,0.0,63,0.00,,,0.00,0,Wunderground v.1.15,2013-02-19 13:05:00,
2013-02-19 05:15:00,50.3,38.6,29.93,NE,56,1.0,1.0,64,0.00,,,0.00,0,Wunderground v.1.15,2013-02-19 13:15:00,
2013-02-19 05:20:00,50.4,38.3,29.93,NE,56,0.0,0.0,63,0.00,,,0.00,0,Wunderground v.1.15,2013-02-19 13:20:00,
2013-02-19 05:25:00,50.3,38.2,29.93,NNE,30,2.0,2.0,63,0.00,,,0.00,0,Wunderground v.1.15,2013-02-19 13:25:00,
2013-02-19 05:35:00,50.2,38.1,29.92,NE,52,0.0,0.0,63,0.00,,,0.00,0,Wunderground v.1.15,2013-02-19 13:35:00,
2013-02-19 05:45:00,50.1,37.6,29.93,NE,52,0.0,0.0,62,0.00,,,0.00,0,Wunderground v.1.15,2013-02-19 13:45:00,
2013-02-19 05:50:00,50.1,38.0,29.93,NE,52,0.0,0.0,63,0.00,,,0.00,0,Wunderground v.1.15,2013-02-19 13:50:00,
2013-02-19 06:00:00,50.1,38.0,29.93,North,4,0.0,0.0,63,0.00,,,0.00,0,Wunderground v.1.15,2013-02-19 14:00:00,
2013-02-19 06:05:00,50.2,38.1,29.93,North,4,0.0,0.0,63,0.00,,,0.00,0,Wunderground v.1.15,2013-02-19 14:05:00,
2013-02-19 06:10:00,50.2,37.7,29.93,ENE,63,0.0,0.0,62,0.00,,,0.00,0,Wunderground v.1.15,2013-02-19 14:10:00,
2013-02-19 06:15:00,50.2,37.7,29.93,ENE,60,0.0,0.0,62,0.00,,,0.00,0,Wunderground v.1.15,2013-02-19 14:15:00,
2013-02-19 06:25:00,50.2,37.3,29.93,ENE,68,0.0,2.0,61,0.00,,,0.00,0,Wunderground v.1.15,2013-02-19 14:25:00,
2013-02-19 06:30:00,50.2,37.3,29.93,ENE,64,1.0,1.0,61,0.00,,,0.00,0,Wunderground v.1.15,2013-02-19 14:30:00,
2013-02-19 06:35:00,50.2,37.3,29.93,ENE,64,1.0,1.0,61,0.00,,,0.00,0,Wunderground v.1.15,2013-02-19 14:35:00,
2013-02-19 06:40:00,50.2,37.3,29.93,East,80,1.0,1.0,61,0.00,,,0.00,0,Wunderground v.1.15,2013-02-19 14:40:00,
2013-02-19 06:50:00,50.3,36.9,29.93,ENE,59,0.0,0.0,60,0.00,,,0.00,0,Wunderground v.1.15,2013-02-19 14:50:00,
2013-02-19 06:55:00,50.3,37.4,29.93,ENE,62,5.0,5.0,61,0.00,,,0.00,0,Wunderground v.1.15,2013-02-19 14:55:00,
2013-02-19 07:00:00,50.2,37.3,29.92,ENE,64,3.0,3.0,61,0.00,,,0.00,0,Wunderground v.1.15,2013-02-19 15:00:00,
2013-02-19 07:05:00,50.3,37.4,29.92,East,81,2.0,3.0,61,0.00,,,0.00,0,Wunderground v.1.15,2013-02-19 15:05:00,
2013-02-19 07:15:00,50.2,37.3,29.92,ENE,70,2.0,2.0,61,0.00,,,0.00,0,Wunderground v.1.15,2013-02-19 15:15:00,
2013-02-19 07:20:00,50.2,37.3,29.92,East,97,2.0,2.0,61,0.00,,,0.00,0,Wunderground v.1.15,2013-02-19 15:20:00,
2013-02-19 07:25:00,50.3,37.4,29.92,East,96,2.0,2.0,61,0.00,,,0.00,0,Wunderground v.1.15,2013-02-19 15:25:00,
2013-02-19 07:30:00,50.3,37.4,29.92,SE,127,4.0,4.0,61,0.00,,,0.00,0,Wunderground v.1.15,2013-02-19 15:30:00,
2013-02-19 07:40:00,50.3,37.8,29.93,East,98,2.0,2.0,62,0.00,,,0.00,0,Wunderground v.1.15,2013-02-19 15:40:00,
2013-02-19 07:50:00,50.3,37.8,29.92,ENE,59,2.0,2.0,62,0.00,,,0.00,0,Wunderground v.1.15,2013-02-19 15:50:00,
2013-02-19 07:55:00,50.2,37.7,29.92,East,101,2.0,2.0,62,0.00,,,0.00,0,Wunderground v.1.15,2013-02-19 15:55:00,
2013-02-19 08:00:00,50.3,38.2,29.92,NE,50,1.0,1.0,63,0.00,,,0.00,0,Wunderground v.1.15,2013-02-19 16:00:00,
2013-02-19 08:05:00,50.3,38.2,29.92,East,92,0.0,1.0,63,0.00,,,0.00,0,Wunderground v.1.15,2013-02-19 16:05:00,
2013-02-19 08:15:00,50.4,38.3,29.92,ENE,57,0.0,2.0,63,0.00,,,0.00,0,Wunderground v.1.15,2013-02-19 16:15:00,
2013-02-19 08:20:00,50.4,38.3,29.92,ENE,60,0.0,0.0,63,0.00,,,0.00,0,Wunderground v.1.15,2013-02-19 16:20:00,
2013-02-19 08:25:00,50.4,38.3,29.92,NE,47,1.0,1.0,63,0.00,,,0.00,0,Wunderground v.1.15,2013-02-19 16:25:00,
2013-02-19 08:35:00,50.7,38.6,29.92,NE,48,0.0,0.0,63,0.00,,,0.00,0,Wunderground v.1.15,2013-02-19 16:35:00,
2013-02-19 08:45:00,50.7,38.6,29.93,ESE,115,1.0,4.0,63,0.00,,,0.00,0,Wunderground v.1.15,2013-02-19 16:45:00,
2013-02-19 08:50:00,50.6,38.9,29.93,ESE,116,0.0,0.0,64,0.00,,,0.00,0,Wunderground v.1.15,2013-02-19 16:50:00,
2013-02-19 09:00:00,50.3,40.5,29.93,ESE,119,1.0,1.0,69,0.00,,,0.00,0,Wunderground v.1.15,2013-02-19 17:00:00,
2013-02-19 09:05:00,49.9,40.9,29.93,ESE,119,2.0,2.0,71,0.00,,,0.00,0,Wunderground v.1.15,2013-02-19 17:05:00,
2013-02-19 09:15:00,49.4,41.5,29.93,ESE,119,2.0,2.0,74,0.00,,,0.00,0,Wunderground v.1.15,2013-02-19 17:15:00,
2013-02-19 09:24:00,49.0,41.4,29.93,ESE,119,0.0,0.0,75,0.00,,,0.00,0,Wunderground v.1.15,2013-02-19 17:24:00,
2013-02-19 09:30:00,49.0,41.4,29.92,ESE,118,0.0,0.0,75,0.00,,,0.00,0,Wunderground v.1.15,2013-02-19 17:30:00,
2013-02-19 09:39:00,48.7,40.8,29.92,East,93,0.0,0.0,74,0.00,,,0.00,0,Wunderground v.1.15,2013-02-19 17:39:00,
2013-02-19 09:45:00,48.7,40.1,29.92,NE,56,1.0,1.0,72,0.00,,,0.00,0,Wunderground v.1.15,2013-02-19 17:45:00,
2013-02-19 09:50:00,48.7,41.1,29.92,ENE,63,3.0,3.0,75,0.00,,,0.00,0,Wunderground v.1.15,2013-02-19 17:50:00,
2013-02-19 09:59:00,48.8,41.6,29.92,ENE,73,2.0,2.0,76,0.00,,,0.00,0,Wunderground v.1.15,2013-02-19 17:59:00,
2013-02-19 10:05:00,48.6,41.0,29.92,East,94,1.0,2.0,75,0.00,,,0.00,0,Wunderground v.1.15,2013-02-19 18:05:00,
2013-02-19 10:15:00,48.6,41.7,29.92,East,94,2.0,2.0,77,0.00,,,0.00,0,Wunderground v.1.15,2013-02-19 18:15:00,
2013-02-19 10:20:00,48.6,41.7,29.92,East,94,2.0,2.0,77,0.00,,,0.00,0,Wunderground v.1.15,2013-02-19 18:20:00,
2013-02-19 10:29:00,48.6,41.7,29.92,ESE,116,1.0,1.0,77,0.00,,,0.00,0,Wunderground v.1.15,2013-02-19 18:29:00,
2013-02-19 10:40:00,48.8,42.2,29.92,SE,127,2.0,2.0,78,0.00,,,0.00,0,Wunderground v.1.15,2013-02-19 18:40:00,
2013-02-19 10:45:00,49.0,42.4,29.92,SE,126,3.0,3.0,78,0.00,,,0.00,0,Wunderground v.1.15,2013-02-19 18:45:00,
2013-02-19 10:50:00,49.1,42.9,29.91,ESE,109,1.0,1.0,79,0.00,,,0.00,0,Wunderground v.1.15,2013-02-19 18:50:00,
2013-02-19 11:00:00,49.2,42.6,29.91,ESE,119,1.0,1.0,78,0.00,,,0.00,0,Wunderground v.1.15,2013-02-19 19:00:00,
2013-02-19 11:05:00,49.3,43.1,29.91,ESE,120,0.0,1.0,79,0.00,,,0.00,0,Wunderground v.1.15,2013-02-19 19:05:00,
2013-02-19 11:15:00,49.3,42.7,29.90,SE,124,0.0,2.0,78,0.00,,,0.00,0,Wunderground v.1.15,2013-02-19 19:15:00,
2013-02-19 11:20:00,49.2,42.6,29.90,SE,124,2.0,2.0,78,0.00,,,0.00,0,Wunderground v.1.15,2013-02-19 19:20:00,
2013-02-19 11:30:00,49.3,43.1,29.91,South,191,0.0,0.0,79,0.00,,,0.00,0,Wunderground v.1.15,2013-02-19 19:30:00,
2013-02-19 11:39:00,49.6,43.0,29.90,South,189,2.0,2.0,78,0.00,,,0.00,0,Wunderground v.1.15,2013-02-19 19:39:00,
2013-02-19 11:45:00,49.5,42.9,29.90,SE,128,0.0,2.0,78,0.00,,,0.00,0,Wunderground v.1.15,2013-02-19 19:45:00,
2013-02-19 11:50:00,49.5,42.6,29.89,SSE,148,0.0,0.0,77,0.00,,,0.00,0,Wunderground v.1.15,2013-02-19 19:50:00,
2013-02-19 11:55:00,49.5,42.6,29.89,ENE,58,0.0,0.0,77,0.00,,,0.00,0,Wunderground v.1.15,2013-02-19 19:55:00,
2013-02-19 12:05:00,49.8,43.2,29.89,SSE,168,2.0,2.0,78,0.00,,,0.00,0,Wunderground v.1.15,2013-02-19 20:05:00,
2013-02-19 12:15:00,49.7,43.1,29.89,East,101,0.0,1.0,78,0.00,,,0.00,0,Wunderground v.1.15,2013-02-19 20:15:00,
2013-02-19 12:20:00,49.7,43.1,29.88,ESE,102,0.0,0.0,78,0.00,,,0.00,0,Wunderground v.1.15,2013-02-19 20:20:00,
2013-02-19 12:25:00,49.7,43.5,29.88,SE,135,0.0,0.0,79,0.00,,,0.00,0,Wunderground v.1.15,2013-02-19 20:25:00,
2013-02-19 12:35:00,49.8,43.5,29.88,SE,134,1.0,1.0,79,0.00,,,0.00,0,Wunderground v.1.15,2013-02-19 20:35:00,
2013-02-19 12:45:00,50.1,43.8,29.87,SSE,165,0.0,0.0,79,0.00,,,0.00,0,Wunderground v.1.15,2013-02-19 20:45:00,
2013-02-19 12:50:00,50.3,43.7,29.86,SW,223,1.0,1.0,78,0.00,,,0.00,0,Wunderground v.1.15,2013-02-19 20:50:00,
2013-02-19 12:55:00,50.7,44.1,29.86,SSW,196,0.0,1.0,78,0.00,,,0.00,0,Wunderground v.1.15,2013-02-19 20:55:00,
2013-02-19 13:05:00,51.9,44.9,29.85,South,177,3.0,3.0,77,0.00,,,0.00,0,Wunderground v.1.15,2013-02-19 21:05:00,
2013-02-19 13:15:00,53.8,46.1,29.85,South,173,0.0,1.0,75,0.00,,,0.00,0,Wunderground v.1.15,2013-02-19 21:15:00,
2013-02-19 13:20:00,54.3,46.2,29.85,South,172,1.0,1.0,74,0.00,,,0.00,0,Wunderground v.1.15,2013-02-19 21:20:00,
2013-02-19 13:25:00,54.4,44.8,29.85,SSW,204,5.0,5.0,70,0.00,,,0.00,0,Wunderground v.1.15,2013-02-19 21:25:00,
2013-02-19 13:35:00,54.2,44.2,29.84,South,182,3.0,3.0,69,0.00,,,0.00,0,Wunderground v.1.15,2013-02-19 21:35:00,
2013-02-19 13:40:00,53.9,44.0,29.84,SSE,168,2.0,2.0,69,0.00,,,0.00,0,Wunderground v.1.15,2013-02-19 21:40:00,
2013-02-19 13:45:00,53.6,43.3,29.84,SSW,204,2.0,2.0,68,0.00,,,0.00,0,Wunderground v.1.15,2013-02-19 21:45:00,
2013-02-19 13:54:00,52.2,42.0,29.84,SSW,196,3.0,3.0,68,0.00,,,0.00,0,Wunderground v.1.15,2013-02-19 21:54:00,
2013-02-19 14:00:00,52.0,42.5,29.84,SSW,213,3.0,3.0,70,0.00,,,0.00,0,Wunderground v.1.15,2013-02-19 22:00:00,
2013-02-19 14:05:00,52.1,42.6,29.84,WSW,242,0.0,3.0,70,0.00,,,0.00,0,Wunderground v.1.15,2013-02-19 22:05:00,
2013-02-19 14:15:00,53.6,43.3,29.84,SW,224,1.0,5.0,68,0.00,,,0.00,0,Wunderground v.1.15,2013-02-19 22:15:00,
2013-02-19 14:25:00,53.7,42.2,29.83,SW,230,0.0,0.0,65,0.00,,,0.00,0,Wunderground v.1.15,2013-02-19 22:25:00,
2013-02-19 14:30:00,53.5,41.6,29.83,SW,231,0.0,0.0,64,0.00,,,0.00,0,Wunderground v.1.15,2013-02-19 22:30:00,
2013-02-19 14:40:00,53.1,41.6,29.83,SSW,198,4.0,4.0,65,0.00,,,0.00,0,Wunderground v.1.15,2013-02-19 22:40:00,
2013-02-19 14:45:00,52.9,41.8,29.83,SW,225,3.0,4.0,66,0.00,,,0.00,0,Wunderground v.1.15,2013-02-19 22:45:00,
2013-02-19 14:55:00,52.7,40.5,29.83,WSW,251,4.0,4.0,63,0.00,,,0.00,0,Wunderground v.1.15,2013-02-19 22:55:00,
2013-02-19 15:00:00,52.4,40.2,29.82,WSW,248,2.0,2.0,63,0.00,,,0.00,0,Wunderground v.1.15,2013-02-19 23:00:00,
2013-02-19 15:05:00,52.1,39.9,29.82,SW,231,1.0,2.0,63,0.00,,,0.00,0,Wunderground v.1.15,2013-02-19 23:05:00,
2013-02-19 15:15:00,51.7,40.7,29.82,SW,233,2.0,2.0,66,0.00,,,0.00,0,Wunderground v.1.15,2013-02-19 23:15:00,
2013-02-19 15:25:00,51.7,41.9,29.82,West,267,2.0,4.0,69,0.00,,,0.00,0,Wunderground v.1.15,2013-02-19 23:25:00,
2013-02-19 15:35:00,51.7,40.7,29.82,SW,233,1.0,1.0,66,0.00,,,0.00,0,Wunderground v.1.15,2013-02-19 23:35:00,
2013-02-19 15:40:00,51.9,41.3,29.81,West,266,0.0,0.0,67,0.00,,,0.00,0,Wunderground v.1.15,2013-02-19 23:40:00,
2013-02-19 15:45:00,52.1,41.1,29.81,WNW,284,2.0,2.0,66,0.00,,,0.00,0,Wunderground v.1.15,2013-02-19 23:45:00,
2013-02-19 15:54:00,51.9,40.1,29.81,SW,233,0.0,1.0,64,0.00,,,0.00,0,Wunderground v.1.15,2013-02-19 23:54:00,
2013-02-19 16:00:00,51.7,40.3,29.81,SW,226,1.0,1.0,65,0.00,,,0.00,0,Wunderground v.1.15,2013-02-20 00:00:00,
2013-02-19 16:05:00,51.7,40.7,29.81,NW,304,1.0,1.0,66,0.00,,,0.00,0,Wunderground v.1.15,2013-02-20 00:05:00,
2013-02-19 16:15:00,51.3,39.5,29.80,SW,231,1.0,4.0,64,0.00,,,0.00,0,Wunderground v.1.15,2013-02-20 00:15:00,
2013-02-19 16:25:00,51.3,40.3,29.80,SW,233,1.0,4.0,66,0.00,,,0.00,0,Wunderground v.1.15,2013-02-20 00:25:00,
2013-02-19 16:30:00,51.1,39.7,29.79,SW,232,2.0,2.0,65,0.00,,,0.00,0,Wunderground v.1.15,2013-02-20 00:30:00,
2013-02-19 16:40:00,51.2,40.2,29.79,WNW,291,1.0,1.0,66,0.00,,,0.00,0,Wunderground v.1.15,2013-02-20 00:40:00,
2013-02-19 16:45:00,51.1,40.1,29.79,West,265,2.0,2.0,66,0.00,,,0.00,0,Wunderground v.1.15,2013-02-20 00:45:00,
2013-02-19 16:55:00,50.5,39.2,29.78,SW,220,1.0,1.0,65,0.00,,,0.00,0,Wunderground v.1.15,2013-02-20 00:55:00,
2013-02-19 17:00:00,50.4,39.1,29.78,West,280,1.0,1.0,65,0.00,,,0.00,0,Wunderground v.1.15,2013-02-20 01:00:00,
2013-02-19 17:05:00,50.3,39.0,29.78,WNW,298,2.0,2.0,65,0.00,,,0.00,0,Wunderground v.1.15,2013-02-20 01:05:00,
2013-02-19 17:15:00,50.2,38.9,29.79,West,276,1.0,3.0,65,0.00,,,0.00,0,Wunderground v.1.15,2013-02-20 01:15:00,
2013-02-19 17:20:00,50.2,38.9,29.79,WSW,241,0.0,0.0,65,0.00,,,0.00,0,Wunderground v.1.15,2013-02-20 01:20:00,
2013-02-19 17:25:00,50.2,38.9,29.79,SW,225,3.0,3.0,65,0.00,,,0.00,0,Wunderground v.1.15,2013-02-20 01:25:00,
2013-02-19 17:35:00,50.1,38.8,29.79,NW,308,2.0,2.0,65,0.00,,,0.00,0,Wunderground v.1.15,2013-02-20 01:35:00,
2013-02-19 17:45:00,50.1,38.4,29.79,WSW,242,0.0,0.0,64,0.00,,,0.00,0,Wunderground v.1.15,2013-02-20 01:45:00,
2013-02-19 17:50:00,50.1,38.4,29.78,SSW,211,4.0,4.0,64,0.00,,,0.00,0,Wunderground v.1.15,2013-02-20 01:50:00,
2013-02-19 17:55:00,50.1,38.4,29.78,West,266,1.0,4.0,64,0.00,,,0.00,0,Wunderground v.1.15,2013-02-20 01:55:00,
2013-02-19 18:05:00,50.1,38.0,29.78,SW,217,2.0,6.0,63,0.00,,,0.00,0,Wunderground v.1.15,2013-02-20 02:05:00,
2013-02-19 18:15:00,50.1,37.2,29.78,WSW,238,8.0,8.0,61,0.00,,,0.00,0,Wunderground v.1.15,2013-02-20 02:15:00,
2013-02-19 18:20:00,50.2,37.3,29.78,West,275,0.0,0.0,61,0.00,,,0.00,0,Wunderground v.1.15,2013-02-20 02:20:00,
2013-02-19 18:25:00,50.2,37.3,29.78,WSW,258,2.0,2.0,61,0.00,,,0.00,0,Wunderground v.1.15,2013-02-20 02:25:00,
2013-02-19 18:35:00,50.2,36.4,29.78,SW,234,4.0,4.0,59,0.00,,,0.00,0,Wunderground v.1.15,2013-02-20 02:35:00,
2013-02-19 18:45:00,50.1,35.9,29.78,SSW,194,7.0,7.0,58,0.00,,,0.00,0,Wunderground v.1.15,2013-02-20 02:45:00,
2013-02-19 18:50:00,50.1,36.3,29.78,WSW,255,0.0,0.0,59,0.00,,,0.00,0,Wunderground v.1.15,2013-02-20 02:50:00,
2013-02-19 18:55:00,50.1,36.7,29.78,SW,218,0.0,0.0,60,0.00,,,0.00,0,Wunderground v.1.15,2013-02-20 02:55:00,
2013-02-19 19:05:00,50.1,36.7,29.78,WSW,241,1.0,1.0,60,0.00,,,0.00,0,Wunderground v.1.15,2013-02-20 03:05:00,
2013-02-19 19:15:00,50.1,37.2,29.78,SW,223,3.0,3.0,61,0.00,,,0.00,0,Wunderground v.1.15,2013-02-20 03:15:00,
2013-02-19 19:20:00,50.0,36.7,29.78,WSW,243,1.0,1.0,60,0.00,,,0.00,0,Wunderground v.1.15,2013-02-20 03:20:00,
2013-02-19 19:30:00,50.1,36.3,29.77,SW,231,4.0,4.0,59,0.00,,,0.00,0,Wunderground v.1.15,2013-02-20 03:30:00,
2013-02-19 19:39:00,50.2,36.4,29.77,WSW,244,1.0,1.0,59,0.00,,,0.00,0,Wunderground v.1.15,2013-02-20 03:39:00,
2013-02-19 19:45:00,50.1,36.7,29.77,WSW,255,2.0,2.0,60,0.00,,,0.00,0,Wunderground v.1.15,2013-02-20 03:45:00,
2013-02-19 19:50:00,50.1,36.7,29.76,SW,223,2.0,2.0,60,0.00,,,0.00,0,Wunderground v.1.15,2013-02-20 03:50:00,
2013-02-19 19:55:00,50.2,37.3,29.77,SW,221,4.0,4.0,61,0.00,,,0.00,0,Wunderground v.1.15,2013-02-20 03:55:00,
2013-02-19 20:05:00,50.3,37.4,29.76,West,267,4.0,4.0,61,0.00,,,0.00,0,Wunderground v.1.15,2013-02-20 04:05:00,
2013-02-19 20:15:00,50.4,37.4,29.76,SW,223,3.0,5.0,61,0.00,,,0.00,0,Wunderground v.1.15,2013-02-20 04:15:00,
2013-02-19 20:20:00,50.4,37.4,29.76,SW,217,3.0,3.0,61,0.00,,,0.00,0,Wunderground v.1.15,2013-02-20 04:20:00,
2013-02-19 20:25:00,50.4,39.5,29.76,SSW,203,9.0,9.0,66,0.00,,,0.00,0,Wunderground v.1.15,2013-02-20 04:25:00,
2013-02-19 20:30:00,50.1,39.9,29.76,SW,230,8.0,8.0,68,0.00,,,0.00,0,Wunderground v.1.15,2013-02-20 04:30:00,
2013-02-19 20:40:00,49.0,40.0,29.76,NW,307,5.0,5.0,71,0.00,,,0.00,0,Wunderground v.1.15,2013-02-20 04:40:00,
2013-02-19 20:49:00,47.8,39.6,29.76,NW,309,0.0,0.0,73,0.00,,,0.00,0,Wunderground v.1.15,2013-02-20 04:49:00,
2013-02-19 20:55:00,47.4,40.2,29.75,NW,309,1.0,1.0,76,0.00,,,0.00,0,Wunderground v.1.15,2013-02-20 04:55:00,
2013-02-19 21:00:00,46.9,38.7,29.75,SSE,168,2.0,2.0,73,0.00,,,0.00,0,Wunderground v.1.15,2013-02-20 05:00:00,
2013-02-19 21:05:00,46.6,40.1,29.75,South,169,0.0,2.0,78,0.00,,,0.00,0,Wunderground v.1.15,2013-02-20 05:05:00,
2013-02-19 21:09:00,46.5,39.3,29.75,South,169,0.0,0.0,76,0.00,,,0.00,0,Wunderground v.1.15,2013-02-20 05:09:00,
2013-02-19 21:15:00,46.4,40.6,29.74,South,169,0.0,0.0,80,0.00,,,0.00,0,Wunderground v.1.15,2013-02-20 05:15:00,
2013-02-19 21:20:00,46.2,40.4,29.74,South,169,0.0,0.0,80,0.00,,,0.00,0,Wunderground v.1.15,2013-02-20 05:20:00,
2013-02-19 21:30:00,46.2,40.7,29.74,South,173,1.0,1.0,81,0.00,,,0.00,0,Wunderground v.1.15,2013-02-20 05:30:00,
2013-02-19 21:39:00,46.5,41.3,29.74,SSW,210,0.0,0.0,82,0.00,,,0.00,0,Wunderground v.1.15,2013-02-20 05:39:00,
2013-02-19 21:45:00,46.7,41.5,29.73,SSW,210,1.0,1.0,82,0.00,,,0.00,0,Wunderground v.1.15,2013-02-20 05:45:00,
2013-02-19 21:50:00,47.0,41.5,29.73,South,191,1.0,1.0,81,0.00,,,0.00,0,Wunderground v.1.15,2013-02-20 05:50:00,
2013-02-19 21:55:00,47.1,41.6,29.73,West,265,1.0,1.0,81,0.00,,,0.00,0,Wunderground v.1.15,2013-02-20 05:55:00,
2013-02-19 22:05:00,47.3,41.8,29.72,South,188,5.0,5.0,81,0.00,,,0.00,0,Wunderground v.1.15,2013-02-20 06:05:00,
2013-02-19 22:14:00,47.7,42.5,29.72,SSW,192,9.0,9.0,82,0.00,,,0.00,0,Wunderground v.1.15,2013-02-20 06:14:00,
2013-02-19 22:19:00,47.9,43.0,29.72,SSW,204,4.0,4.0,83,0.00,,,0.00,0,Wunderground v.1.15,2013-02-20 06:19:00,
2013-02-19 22:25:00,47.9,43.0,29.72,SSW,195,3.0,4.0,83,0.00,,,0.00,0,Wunderground v.1.15,2013-02-20 06:25:00,
2013-02-19 22:30:00,47.8,42.9,29.73,West,263,1.0,1.0,83,0.00,,,0.00,0,Wunderground v.1.15,2013-02-20 06:30:00,
2013-02-19 22:40:00,46.5,41.0,29.73,WSW,239,9.0,9.0,81,0.00,,,0.00,0,Wunderground v.1.15,2013-02-20 06:40:00,
2013-02-19 22:50:00,45.6,40.4,29.71,SSW,209,3.0,3.0,82,0.00,,,0.00,0,Wunderground v.1.15,2013-02-20 06:50:00,
2013-02-19 22:55:00,45.6,40.4,29.71,NNW,341,0.0,3.0,82,0.00,,,0.00,0,Wunderground v.1.15,2013-02-20 06:55:00,
2013-02-19 23:00:00,45.6,40.7,29.71,SSW,193,0.0,0.0,83,0.00,,,0.00,0,Wunderground v.1.15,2013-02-20 07:00:00,
2013-02-19 23:05:00,45.8,41.2,29.70,SSW,204,3.0,3.0,84,0.00,,,0.00,0,Wunderground v.1.15,2013-02-20 07:05:00,
2013-02-19 23:14:00,46.0,41.4,29.70,WNW,288,4.0,8.0,84,0.00,,,0.00,0,Wunderground v.1.15,2013-02-20 07:14:00,
2013-02-19 23:20:00,45.8,41.2,29.70,West,270,0.0,0.0,84,0.00,,,0.00,0,Wunderground v.1.15,2013-02-20 07:20:00,
2013-02-19 23:25:00,45.9,41.3,29.70,WNW,303,3.0,3.0,84,0.00,,,0.00,0,Wunderground v.1.15,2013-02-20 07:25:00,
2013-02-19 23:30:00,46.0,41.4,29.70,West,281,3.0,3.0,84,0.00,,,0.00,0,Wunderground v.1.15,2013-02-20 07:30:00,
2013-02-19 23:40:00,45.7,40.8,29.70,WNW,292,4.0,4.0,83,0.00,,,0.00,0,Wunderground v.1.15,2013-02-20 07:40:00,
2013-02-19 23:49:00,45.5,40.3,29.70,WSW,248,12.0,12.0,82,0.00,,,0.00,0,Wunderground v.1.15,2013-02-20 07:49:00,
2013-02-19 23:55:00,45.5,40.0,29.71,NW,312,2.0,12.0,81,0.00,,,0.00,0,Wunderground v.1.15,2013-02-20 07:55:00,